Tuesday, January 22, 2019, 8:58 PM GMT
Back to Local

CYPQ, Peterborough Airport

Location: , , Canada Lat: 44.233
Local Time: 8:58 PM GMT (20:58 GMT) Lon: -78.367
Time Zone: GMT Elev: 626 ft

Show me the last for .
Show Decoded

2019-01-22 20:42 METAR CYPQ 222042Z AUTO 07007KT 9SM BKN013 OVC085 M10/M13 A3042 RMK SLP324 =
2019-01-22 20:22 METAR CYPQ 222022Z AUTO 07007KT 9SM SCT011 SCT065 OVC087 M10/M13 A3043 RMK
                 SLP325 =
2019-01-22 20:00 METAR CYPQ 222000Z AUTO 08005KT 9SM BKN011 OVC065 M10/M13 A3044 RMK PRESFR
                 SLP328 =
2019-01-22 19:34 METAR CYPQ 221934Z AUTO 09003KT 060V120 9SM OVC011 M10/M13 A3046 RMK SLP337 =
2019-01-22 19:00 METAR CYPQ 221900Z AUTO 09004KT 060V130 9SM -SN OVC013 M10/M14 A3047 RMK SLP340
                 =
2019-01-22 18:39 METAR CYPQ 221839Z AUTO VRB04KT 9SM -SN OVC013 M11/M15 A3048 RMK SLP342 =
2019-01-22 18:00 METAR CYPQ 221800Z AUTO VRB02KT 9SM OVC013 M12/M17 A3052 RMK SLP357 =
2019-01-22 17:57 METAR CYPQ 221757Z AUTO VRB02KT 9SM OVC013 M12/M17 A3052 RMK SLP356 =
2019-01-22 17:12 METAR CYPQ 221712Z AUTO 06004KT 340V080 9SM -SN BKN013 M14/M20 A3054 RMK PRESFR
                 SLP361 =
2019-01-22 17:00 METAR CYPQ 221700Z AUTO 01002KT 9SM BKN013 M14/M20 A3055 RMK SLP366 =
2019-01-22 16:58 METAR CYPQ 221658Z AUTO VRB02KT 9SM BKN013 M15/M20 A3055 RMK SLP365 =
2019-01-22 16:00 METAR CYPQ 221600Z AUTO 06003KT 9SM FEW190 M17/M23 A3057 RMK SLP374 =
2019-01-22 15:00 METAR CYPQ 221500Z AUTO 00000KT 9SM BKN220 BKN240 M20/M24 A3059 RMK SLP382 =
2019-01-22 14:00 METAR CYPQ 221400Z AUTO 06002KT 9SM CLR M24/M27 A3060 RMK SLP384 =
2019-01-22 13:00 METAR CYPQ 221300Z AUTO 00000KT 9SM CLR M28/M30 A3060 RMK SLP387 =
2019-01-22 12:00 METAR CYPQ 221200Z AUTO 00000KT 9SM CLR M28/M31 A3061 RMK SLP390 =
2019-01-22 11:00 METAR CYPQ 221100Z AUTO 00000KT 9SM CLR M28/M31 A3059 RMK SLP382 =
2019-01-22 10:00 METAR CYPQ 221000Z AUTO 07003KT 9SM CLR M27/M30 A3059 RMK SLP384 =
2019-01-22 09:00 METAR CYPQ 220900Z AUTO 00000KT 9SM CLR M26/M28 A3059 RMK SLP383 =
2019-01-22 08:00 METAR CYPQ 220800Z AUTO 26002KT 9SM CLR M26/M28 A3058 RMK SLP379 =
2019-01-22 07:00 METAR CYPQ 220700Z AUTO VRB02KT 9SM CLR M26/M29 A3055 RMK SLP370 =
2019-01-22 06:00 METAR CYPQ 220600Z AUTO 00000KT 9SM CLR M23/M27 A3053 RMK SLP360 =
2019-01-22 05:00 METAR CYPQ 220500Z AUTO 32002KT 9SM CLR M21/M26 A3054 RMK SLP365 =
2019-01-22 04:00 METAR CYPQ 220400Z AUTO 32004KT 9SM CLR M20/M26 A3052 RMK SLP359 =
2019-01-22 03:00 METAR CYPQ 220300Z AUTO 31005KT 260V020 9SM CLR M19/M26 A3052 RMK SLP358 =
2019-01-22 02:00 METAR CYPQ 220200Z AUTO 31011KT 9SM CLR M19/M25 A3050 RMK SLP352 =
2019-01-22 01:00 METAR CYPQ 220100Z AUTO 31011KT 9SM CLR M18/M25 A3047 RMK SLP344 =
2019-01-22 00:00 METAR CYPQ 220000Z AUTO 30009G16KT 9SM CLR M18/M25 A3046 RMK SLP340 =
2019-01-21 23:00 METAR CYPQ 212300Z AUTO 29009KT 9SM CLR M18/M25 A3043 RMK SLP328 =
2019-01-21 22:00 METAR CYPQ 212200Z AUTO 29010G15KT 9SM CLR M18/M26 A3042 RMK SLP323 =
2019-01-21 21:00 METAR CYPQ 212100Z AUTO 29016G22KT 9SM CLR M18/M26 A3038 RMK SLP311 =

Support USWX by starting your Amazon purchase here.